Hebo, Oregon
Current Conditions -  °F | °C
As of 2:35 AM on Wednesday 22 Oct 2014 (Local Time) from KTMK Reporting Station
Moderate Rain Moderate Rain  
Wind Chill: 61°   Ceiling: 3100
Heat Index: 61°   Visibility: 10mi
Dew Point: 55°   Wind: 20mph
Humidity: 82%   Direction: 160°SSE
Pressure: 29.75"   Gusts: 31mph
Location:  45.23°N, 123.87°W
Report Text: KTMK 220935Z AUTO 16017G27KT 10SM RA SCT024 BKN031 OVC070 16/13 A2975 RMK AO2 P0001
Loading
Personal Weather Stations






























Interactive Weather Map
Tropical Storm Tracking
New forecast layout! Learn more

10-Day Weather Forecast

Advertisements
Track Severe Weather on mobile